sensor_id;sensor_type;location;lat;lon;timestamp;P1;durP1;ratioP1;P2;durP2;ratioP2
26502;SDS011;14177;51.520;6.764;2023-07-22T00:00:57;14.23;;;7.15;;
26502;SDS011;14177;51.520;6.764;2023-07-22T00:03:24;10.77;;;6.95;;
26502;SDS011;14177;51.520;6.764;2023-07-22T00:06:04;10.05;;;6.55;;
26502;SDS011;14177;51.520;6.764;2023-07-22T00:08:36;13.03;;;6.77;;
26502;SDS011;14177;51.520;6.764;2023-07-22T00:11:04;10.23;;;6.35;;
26502;SDS011;14177;51.520;6.764;2023-07-22T00:13:33;10.60;;;6.38;;
26502;SDS011;14177;51.520;6.764;2023-07-22T00:16:01;12.70;;;7.28;;
26502;SDS011;14177;51.520;6.764;2023-07-22T00:18:30;11.52;;;6.93;;
26502;SDS011;14177;51.520;6.764;2023-07-22T00:20:58;13.40;;;7.00;;
26502;SDS011;14177;51.520;6.764;2023-07-22T00:23:25;11.88;;;6.97;;
26502;SDS011;14177;51.520;6.764;2023-07-22T00:25:52;9.13;;;5.78;;
26502;SDS011;14177;51.520;6.764;2023-07-22T00:28:20;12.00;;;7.57;;
26502;SDS011;14177;51.520;6.764;2023-07-22T00:30:46;15.57;;;7.10;;
26502;SDS011;14177;51.520;6.764;2023-07-22T00:33:15;11.88;;;7.18;;
26502;SDS011;14177;51.520;6.764;2023-07-22T00:35:46;14.38;;;6.47;;
26502;SDS011;14177;51.520;6.764;2023-07-22T00:38:16;13.85;;;6.55;;
26502;SDS011;14177;51.520;6.764;2023-07-22T00:40:44;10.65;;;6.40;;
26502;SDS011;14177;51.520;6.764;2023-07-22T00:43:11;9.65;;;6.28;;
26502;SDS011;14177;51.520;6.764;2023-07-22T00:45:38;13.52;;;7.80;;
26502;SDS011;14177;51.520;6.764;2023-07-22T00:48:05;14.15;;;7.00;;
26502;SDS011;14177;51.520;6.764;2023-07-22T00:50:35;16.10;;;6.72;;
26502;SDS011;14177;51.520;6.764;2023-07-22T00:53:02;12.70;;;6.95;;
26502;SDS011;14177;51.520;6.764;2023-07-22T00:55:30;11.25;;;6.53;;
26502;SDS011;14177;51.520;6.764;2023-07-22T00:58:01;13.45;;;6.72;;
26502;SDS011;14177;51.520;6.764;2023-07-22T01:00:28;14.38;;;6.47;;
26502;SDS011;14177;51.520;6.764;2023-07-22T01:02:55;10.68;;;6.70;;
26502;SDS011;14177;51.520;6.764;2023-07-22T01:05:22;11.13;;;7.15;;
26502;SDS011;14177;51.520;6.764;2023-07-22T01:07:51;11.70;;;6.47;;
26502;SDS011;14177;51.520;6.764;2023-07-22T01:10:19;11.98;;;6.68;;
26502;SDS011;14177;51.520;6.764;2023-07-22T01:12:47;19.85;;;7.47;;
26502;SDS011;14177;51.520;6.764;2023-07-22T01:15:15;9.63;;;6.65;;
26502;SDS011;14177;51.520;6.764;2023-07-22T01:17:42;14.18;;;6.05;;
26502;SDS011;14177;51.520;6.764;2023-07-22T01:20:10;13.98;;;6.50;;
26502;SDS011;14177;51.520;6.764;2023-07-22T01:22:39;11.93;;;6.40;;
26502;SDS011;14177;51.520;6.764;2023-07-22T01:25:10;13.05;;;7.22;;
26502;SDS011;14177;51.520;6.764;2023-07-22T01:27:37;13.07;;;7.07;;
26502;SDS011;14177;51.520;6.764;2023-07-22T01:30:04;9.27;;;6.07;;
26502;SDS011;14177;51.520;6.764;2023-07-22T01:32:36;18.00;;;7.22;;
26502;SDS011;14177;51.520;6.764;2023-07-22T01:35:03;12.25;;;6.88;;
26502;SDS011;14177;51.520;6.764;2023-07-22T01:37:30;13.45;;;6.97;;
26502;SDS011;14177;51.520;6.764;2023-07-22T01:39:58;13.40;;;6.45;;
26502;SDS011;14177;51.520;6.764;2023-07-22T01:42:25;15.10;;;6.80;;
26502;SDS011;14177;51.520;6.764;2023-07-22T01:44:52;11.40;;;7.05;;
26502;SDS011;14177;51.520;6.764;2023-07-22T01:47:19;16.25;;;6.95;;
26502;SDS011;14177;51.520;6.764;2023-07-22T01:49:46;10.73;;;6.35;;
26502;SDS011;14177;51.520;6.764;2023-07-22T01:52:13;12.57;;;6.50;;
26502;SDS011;14177;51.520;6.764;2023-07-22T01:54:40;13.13;;;6.82;;
26502;SDS011;14177;51.520;6.764;2023-07-22T01:57:07;12.27;;;6.63;;
26502;SDS011;14177;51.520;6.764;2023-07-22T01:59:34;11.48;;;5.95;;
26502;SDS011;14177;51.520;6.764;2023-07-22T02:02:01;9.77;;;6.13;;
26502;SDS011;14177;51.520;6.764;2023-07-22T02:04:28;17.45;;;6.53;;
26502;SDS011;14177;51.520;6.764;2023-07-22T02:06:55;10.45;;;6.32;;
26502;SDS011;14177;51.520;6.764;2023-07-22T02:09:22;10.25;;;6.57;;
26502;SDS011;14177;51.520;6.764;2023-07-22T02:11:49;18.08;;;6.57;;
26502;SDS011;14177;51.520;6.764;2023-07-22T02:14:16;13.77;;;6.78;;
26502;SDS011;14177;51.520;6.764;2023-07-22T02:16:43;11.80;;;6.85;;
26502;SDS011;14177;51.520;6.764;2023-07-22T02:19:09;11.48;;;7.10;;
26502;SDS011;14177;51.520;6.764;2023-07-22T02:21:40;15.55;;;6.15;;
26502;SDS011;14177;51.520;6.764;2023-07-22T02:24:07;11.30;;;6.65;;
26502;SDS011;14177;51.520;6.764;2023-07-22T02:26:36;11.18;;;5.82;;
26502;SDS011;14177;51.520;6.764;2023-07-22T02:29:03;10.68;;;6.28;;
26502;SDS011;14177;51.520;6.764;2023-07-22T02:31:30;9.45;;;6.32;;
26502;SDS011;14177;51.520;6.764;2023-07-22T02:33:57;13.25;;;6.47;;
26502;SDS011;14177;51.520;6.764;2023-07-22T02:36:24;13.10;;;6.70;;
26502;SDS011;14177;51.520;6.764;2023-07-22T02:38:51;14.00;;;6.85;;
26502;SDS011;14177;51.520;6.764;2023-07-22T02:41:18;12.23;;;7.05;;
26502;SDS011;14177;51.520;6.764;2023-07-22T02:43:47;9.73;;;6.35;;
26502;SDS011;14177;51.520;6.764;2023-07-22T02:46:14;13.23;;;6.35;;
26502;SDS011;14177;51.520;6.764;2023-07-22T02:48:41;10.07;;;6.13;;
26502;SDS011;14177;51.520;6.764;2023-07-22T02:51:09;9.98;;;6.30;;
26502;SDS011;14177;51.520;6.764;2023-07-22T02:53:39;14.32;;;6.57;;
26502;SDS011;14177;51.520;6.764;2023-07-22T02:56:07;12.80;;;6.43;;
26502;SDS011;14177;51.520;6.764;2023-07-22T02:58:34;12.23;;;5.82;;
26502;SDS011;14177;51.520;6.764;2023-07-22T03:01:05;11.65;;;6.75;;
26502;SDS011;14177;51.520;6.764;2023-07-22T03:03:35;9.07;;;6.07;;
26502;SDS011;14177;51.520;6.764;2023-07-22T03:06:03;13.10;;;6.63;;
26502;SDS011;14177;51.520;6.764;2023-07-22T03:08:30;13.30;;;6.38;;
26502;SDS011;14177;51.520;6.764;2023-07-22T03:10:57;12.45;;;6.68;;
26502;SDS011;14177;51.520;6.764;2023-07-22T03:13:24;12.32;;;6.50;;
26502;SDS011;14177;51.520;6.764;2023-07-22T03:15:56;9.93;;;6.47;;
26502;SDS011;14177;51.520;6.764;2023-07-22T03:18:24;18.92;;;7.07;;
26502;SDS011;14177;51.520;6.764;2023-07-22T03:20:51;11.95;;;6.03;;
26502;SDS011;14177;51.520;6.764;2023-07-22T03:23:18;9.35;;;5.90;;
26502;SDS011;14177;51.520;6.764;2023-07-22T03:25:46;12.82;;;6.47;;
26502;SDS011;14177;51.520;6.764;2023-07-22T03:28:14;13.98;;;6.47;;
26502;SDS011;14177;51.520;6.764;2023-07-22T03:30:41;18.52;;;7.20;;
26502;SDS011;14177;51.520;6.764;2023-07-22T03:33:08;13.23;;;6.95;;
26502;SDS011;14177;51.520;6.764;2023-07-22T03:35:36;13.90;;;6.55;;
26502;SDS011;14177;51.520;6.764;2023-07-22T03:38:03;12.90;;;6.70;;
26502;SDS011;14177;51.520;6.764;2023-07-22T03:40:31;10.32;;;6.53;;
26502;SDS011;14177;51.520;6.764;2023-07-22T03:42:59;13.30;;;6.93;;
26502;SDS011;14177;51.520;6.764;2023-07-22T03:45:26;10.35;;;6.30;;
26502;SDS011;14177;51.520;6.764;2023-07-22T03:47:55;9.65;;;5.78;;
26502;SDS011;14177;51.520;6.764;2023-07-22T03:50:26;15.20;;;6.00;;
26502;SDS011;14177;51.520;6.764;2023-07-22T03:52:54;16.63;;;5.97;;
26502;SDS011;14177;51.520;6.764;2023-07-22T03:55:21;11.60;;;6.20;;
26502;SDS011;14177;51.520;6.764;2023-07-22T03:57:48;14.48;;;7.00;;
26502;SDS011;14177;51.520;6.764;2023-07-22T04:00:15;16.95;;;6.47;;
26502;SDS011;14177;51.520;6.764;2023-07-22T04:02:42;12.85;;;7.15;;
26502;SDS011;14177;51.520;6.764;2023-07-22T04:05:10;12.43;;;6.93;;
26502;SDS011;14177;51.520;6.764;2023-07-22T04:07:37;11.60;;;6.07;;
26502;SDS011;14177;51.520;6.764;2023-07-22T04:10:05;11.75;;;6.53;;
26502;SDS011;14177;51.520;6.764;2023-07-22T04:12:33;12.18;;;6.75;;
26502;SDS011;14177;51.520;6.764;2023-07-22T04:15:00;12.93;;;6.45;;
26502;SDS011;14177;51.520;6.764;2023-07-22T04:17:27;13.25;;;6.63;;
26502;SDS011;14177;51.520;6.764;2023-07-22T04:19:55;13.00;;;6.97;;
26502;SDS011;14177;51.520;6.764;2023-07-22T04:22:22;18.95;;;6.93;;
26502;SDS011;14177;51.520;6.764;2023-07-22T04:24:50;12.77;;;7.30;;
26502;SDS011;14177;51.520;6.764;2023-07-22T04:27:19;12.52;;;6.80;;
26502;SDS011;14177;51.520;6.764;2023-07-22T04:29:46;11.68;;;6.78;;
26502;SDS011;14177;51.520;6.764;2023-07-22T04:32:13;13.90;;;6.75;;
26502;SDS011;14177;51.520;6.764;2023-07-22T04:34:40;19.13;;;8.10;;
26502;SDS011;14177;51.520;6.764;2023-07-22T04:37:07;16.48;;;7.05;;
26502;SDS011;14177;51.520;6.764;2023-07-22T04:39:34;18.77;;;7.20;;
26502;SDS011;14177;51.520;6.764;2023-07-22T04:42:01;17.35;;;7.50;;
26502;SDS011;14177;51.520;6.764;2023-07-22T04:44:28;15.70;;;6.50;;
26502;SDS011;14177;51.520;6.764;2023-07-22T04:46:55;14.25;;;7.15;;
26502;SDS011;14177;51.520;6.764;2023-07-22T04:49:22;14.27;;;7.13;;
26502;SDS011;14177;51.520;6.764;2023-07-22T04:51:49;12.95;;;6.50;;
26502;SDS011;14177;51.520;6.764;2023-07-22T04:54:17;15.55;;;6.55;;
26502;SDS011;14177;51.520;6.764;2023-07-22T04:56:44;13.90;;;6.70;;
26502;SDS011;14177;51.520;6.764;2023-07-22T04:59:12;13.93;;;7.43;;
26502;SDS011;14177;51.520;6.764;2023-07-22T05:01:41;12.35;;;6.63;;
26502;SDS011;14177;51.520;6.764;2023-07-22T05:04:08;10.55;;;6.25;;
26502;SDS011;14177;51.520;6.764;2023-07-22T05:06:35;15.30;;;6.40;;
26502;SDS011;14177;51.520;6.764;2023-07-22T05:09:02;16.58;;;6.68;;
26502;SDS011;14177;51.520;6.764;2023-07-22T05:11:30;14.18;;;7.32;;
26502;SDS011;14177;51.520;6.764;2023-07-22T05:13:57;15.77;;;6.55;;
26502;SDS011;14177;51.520;6.764;2023-07-22T05:16:24;13.00;;;6.68;;
26502;SDS011;14177;51.520;6.764;2023-07-22T05:18:52;11.52;;;6.22;;
26502;SDS011;14177;51.520;6.764;2023-07-22T05:21:19;13.18;;;6.82;;
26502;SDS011;14177;51.520;6.764;2023-07-22T05:23:46;12.00;;;6.45;;
26502;SDS011;14177;51.520;6.764;2023-07-22T05:26:13;11.52;;;5.88;;
26502;SDS011;14177;51.520;6.764;2023-07-22T05:28:40;14.52;;;6.25;;
26502;SDS011;14177;51.520;6.764;2023-07-22T05:31:08;14.43;;;6.95;;
26502;SDS011;14177;51.520;6.764;2023-07-22T05:33:35;12.02;;;6.55;;
26502;SDS011;14177;51.520;6.764;2023-07-22T05:36:03;11.88;;;6.00;;
26502;SDS011;14177;51.520;6.764;2023-07-22T05:38:30;12.68;;;6.53;;
26502;SDS011;14177;51.520;6.764;2023-07-22T05:40:58;11.30;;;5.90;;
26502;SDS011;14177;51.520;6.764;2023-07-22T05:43:25;14.27;;;6.28;;
26502;SDS011;14177;51.520;6.764;2023-07-22T05:45:52;14.50;;;6.18;;
26502;SDS011;14177;51.520;6.764;2023-07-22T05:48:19;11.10;;;5.88;;
26502;SDS011;14177;51.520;6.764;2023-07-22T05:50:47;17.77;;;6.35;;
26502;SDS011;14177;51.520;6.764;2023-07-22T05:53:14;18.13;;;6.75;;
26502;SDS011;14177;51.520;6.764;2023-07-22T05:55:41;16.15;;;6.03;;
26502;SDS011;14177;51.520;6.764;2023-07-22T05:58:14;13.30;;;6.70;;
26502;SDS011;14177;51.520;6.764;2023-07-22T06:00:44;17.40;;;6.80;;
26502;SDS011;14177;51.520;6.764;2023-07-22T06:03:12;19.08;;;7.97;;
26502;SDS011;14177;51.520;6.764;2023-07-22T06:05:40;12.85;;;5.95;;
26502;SDS011;14177;51.520;6.764;2023-07-22T06:08:07;13.57;;;6.57;;
26502;SDS011;14177;51.520;6.764;2023-07-22T06:10:34;22.27;;;8.30;;
26502;SDS011;14177;51.520;6.764;2023-07-22T06:13:03;18.15;;;7.22;;
26502;SDS011;14177;51.520;6.764;2023-07-22T06:15:30;15.68;;;7.88;;
26502;SDS011;14177;51.520;6.764;2023-07-22T06:17:58;17.00;;;7.47;;
26502;SDS011;14177;51.520;6.764;2023-07-22T06:20:28;17.15;;;7.47;;
26502;SDS011;14177;51.520;6.764;2023-07-22T06:22:56;16.70;;;6.93;;
26502;SDS011;14177;51.520;6.764;2023-07-22T06:25:23;16.25;;;7.28;;
26502;SDS011;14177;51.520;6.764;2023-07-22T06:27:50;14.68;;;6.90;;
26502;SDS011;14177;51.520;6.764;2023-07-22T06:30:20;12.32;;;7.07;;
26502;SDS011;14177;51.520;6.764;2023-07-22T06:32:47;10.10;;;6.45;;
26502;SDS011;14177;51.520;6.764;2023-07-22T06:35:14;11.80;;;7.28;;
26502;SDS011;14177;51.520;6.764;2023-07-22T06:37:41;13.65;;;6.57;;
26502;SDS011;14177;51.520;6.764;2023-07-22T06:40:08;14.23;;;7.15;;
26502;SDS011;14177;51.520;6.764;2023-07-22T06:42:35;11.98;;;6.07;;
26502;SDS011;14177;51.520;6.764;2023-07-22T06:45:03;13.05;;;6.93;;
26502;SDS011;14177;51.520;6.764;2023-07-22T06:47:31;16.02;;;6.97;;
26502;SDS011;14177;51.520;6.764;2023-07-22T06:49:58;17.20;;;7.07;;
26502;SDS011;14177;51.520;6.764;2023-07-22T06:52:25;12.45;;;6.25;;
26502;SDS011;14177;51.520;6.764;2023-07-22T06:54:52;16.33;;;6.30;;
26502;SDS011;14177;51.520;6.764;2023-07-22T06:57:19;13.50;;;6.57;;
26502;SDS011;14177;51.520;6.764;2023-07-22T06:59:46;15.68;;;6.55;;
26502;SDS011;14177;51.520;6.764;2023-07-22T07:02:13;10.43;;;6.15;;
26502;SDS011;14177;51.520;6.764;2023-07-22T07:04:40;11.35;;;6.05;;
26502;SDS011;14177;51.520;6.764;2023-07-22T07:07:07;12.95;;;6.38;;
26502;SDS011;14177;51.520;6.764;2023-07-22T07:09:34;12.55;;;5.38;;
26502;SDS011;14177;51.520;6.764;2023-07-22T07:12:01;12.48;;;6.45;;
26502;SDS011;14177;51.520;6.764;2023-07-22T07:14:28;13.00;;;6.90;;
26502;SDS011;14177;51.520;6.764;2023-07-22T07:16:55;16.75;;;6.28;;
26502;SDS011;14177;51.520;6.764;2023-07-22T07:19:22;10.43;;;5.93;;
26502;SDS011;14177;51.520;6.764;2023-07-22T07:21:49;16.73;;;6.28;;
26502;SDS011;14177;51.520;6.764;2023-07-22T07:24:17;10.55;;;6.28;;
26502;SDS011;14177;51.520;6.764;2023-07-22T07:26:44;13.70;;;5.97;;
26502;SDS011;14177;51.520;6.764;2023-07-22T07:29:11;11.25;;;5.43;;
26502;SDS011;14177;51.520;6.764;2023-07-22T07:31:45;15.23;;;6.30;;
26502;SDS011;14177;51.520;6.764;2023-07-22T07:34:12;12.48;;;6.50;;
26502;SDS011;14177;51.520;6.764;2023-07-22T07:36:39;16.23;;;6.60;;
26502;SDS011;14177;51.520;6.764;2023-07-22T07:39:06;13.05;;;6.03;;
26502;SDS011;14177;51.520;6.764;2023-07-22T07:41:34;12.55;;;5.90;;
26502;SDS011;14177;51.520;6.764;2023-07-22T07:44:01;10.55;;;6.07;;
26502;SDS011;14177;51.520;6.764;2023-07-22T07:46:28;10.85;;;6.07;;
26502;SDS011;14177;51.520;6.764;2023-07-22T07:48:59;10.68;;;5.63;;
26502;SDS011;14177;51.520;6.764;2023-07-22T07:51:28;9.20;;;5.00;;
26502;SDS011;14177;51.520;6.764;2023-07-22T07:53:57;13.95;;;5.82;;
26502;SDS011;14177;51.520;6.764;2023-07-22T07:56:26;13.05;;;5.90;;
26502;SDS011;14177;51.520;6.764;2023-07-22T07:58:54;10.77;;;5.93;;
26502;SDS011;14177;51.520;6.764;2023-07-22T08:01:21;11.68;;;5.32;;
26502;SDS011;14177;51.520;6.764;2023-07-22T08:03:48;13.63;;;6.15;;
26502;SDS011;14177;51.520;6.764;2023-07-22T08:06:16;11.40;;;5.97;;
26502;SDS011;14177;51.520;6.764;2023-07-22T08:08:45;11.65;;;5.53;;
26502;SDS011;14177;51.520;6.764;2023-07-22T08:11:13;11.25;;;5.35;;
26502;SDS011;14177;51.520;6.764;2023-07-22T08:13:42;10.20;;;5.22;;
26502;SDS011;14177;51.520;6.764;2023-07-22T08:16:12;11.88;;;5.63;;
26502;SDS011;14177;51.520;6.764;2023-07-22T08:18:40;11.98;;;6.22;;
26502;SDS011;14177;51.520;6.764;2023-07-22T08:21:07;7.97;;;4.60;;
26502;SDS011;14177;51.520;6.764;2023-07-22T08:23:35;9.43;;;5.25;;
26502;SDS011;14177;51.520;6.764;2023-07-22T08:26:04;9.13;;;5.25;;
26502;SDS011;14177;51.520;6.764;2023-07-22T08:28:34;9.20;;;4.90;;
26502;SDS011;14177;51.520;6.764;2023-07-22T08:31:01;9.00;;;5.15;;
26502;SDS011;14177;51.520;6.764;2023-07-22T08:33:28;7.90;;;4.68;;
26502;SDS011;14177;51.520;6.764;2023-07-22T08:36:00;11.50;;;4.40;;
26502;SDS011;14177;51.520;6.764;2023-07-22T08:38:28;8.00;;;4.38;;
26502;SDS011;14177;51.520;6.764;2023-07-22T08:40:56;6.30;;;3.85;;
26502;SDS011;14177;51.520;6.764;2023-07-22T08:43:23;8.85;;;4.30;;
26502;SDS011;14177;51.520;6.764;2023-07-22T08:45:53;7.50;;;4.80;;
26502;SDS011;14177;51.520;6.764;2023-07-22T08:48:21;7.75;;;4.40;;
26502;SDS011;14177;51.520;6.764;2023-07-22T08:51:03;8.02;;;4.60;;
26502;SDS011;14177;51.520;6.764;2023-07-22T08:53:36;8.25;;;4.05;;
26502;SDS011;14177;51.520;6.764;2023-07-22T08:56:04;8.48;;;3.97;;
26502;SDS011;14177;51.520;6.764;2023-07-22T08:58:31;9.90;;;4.72;;
26502;SDS011;14177;51.520;6.764;2023-07-22T09:01:00;6.45;;;4.18;;
26502;SDS011;14177;51.520;6.764;2023-07-22T09:03:29;6.85;;;4.40;;
26502;SDS011;14177;51.520;6.764;2023-07-22T09:05:56;6.38;;;4.18;;
26502;SDS011;14177;51.520;6.764;2023-07-22T09:08:24;9.32;;;3.83;;
26502;SDS011;14177;51.520;6.764;2023-07-22T09:10:51;10.98;;;4.00;;
26502;SDS011;14177;51.520;6.764;2023-07-22T09:13:19;8.65;;;4.22;;
26502;SDS011;14177;51.520;6.764;2023-07-22T09:15:48;7.38;;;4.00;;
26502;SDS011;14177;51.520;6.764;2023-07-22T09:18:17;12.70;;;4.63;;
26502;SDS011;14177;51.520;6.764;2023-07-22T09:20:44;6.45;;;3.88;;
26502;SDS011;14177;51.520;6.764;2023-07-22T09:23:11;7.25;;;3.90;;
26502;SDS011;14177;51.520;6.764;2023-07-22T09:25:41;6.22;;;4.20;;
26502;SDS011;14177;51.520;6.764;2023-07-22T09:28:09;8.90;;;4.03;;
26502;SDS011;14177;51.520;6.764;2023-07-22T09:30:37;7.53;;;3.80;;
26502;SDS011;14177;51.520;6.764;2023-07-22T09:33:07;8.00;;;3.53;;
26502;SDS011;14177;51.520;6.764;2023-07-22T09:35:48;8.05;;;3.30;;
26502;SDS011;14177;51.520;6.764;2023-07-22T09:38:23;7.30;;;3.03;;
26502;SDS011;14177;51.520;6.764;2023-07-22T09:40:51;7.93;;;3.28;;
26502;SDS011;14177;51.520;6.764;2023-07-22T09:43:19;5.82;;;3.15;;
26502;SDS011;14177;51.520;6.764;2023-07-22T09:45:49;5.93;;;3.40;;
26502;SDS011;14177;51.520;6.764;2023-07-22T09:48:16;4.63;;;2.85;;
26502;SDS011;14177;51.520;6.764;2023-07-22T09:50:44;8.50;;;2.72;;
26502;SDS011;14177;51.520;6.764;2023-07-22T09:53:14;6.63;;;3.03;;
26502;SDS011;14177;51.520;6.764;2023-07-22T09:55:43;6.78;;;3.00;;
26502;SDS011;14177;51.520;6.764;2023-07-22T09:58:10;4.38;;;2.60;;
26502;SDS011;14177;51.520;6.764;2023-07-22T10:00:41;5.75;;;2.88;;
26502;SDS011;14177;51.520;6.764;2023-07-22T10:03:15;10.35;;;3.10;;
26502;SDS011;14177;51.520;6.764;2023-07-22T10:05:45;9.00;;;3.22;;
26502;SDS011;14177;51.520;6.764;2023-07-22T10:08:18;11.95;;;3.58;;
26502;SDS011;14177;51.520;6.764;2023-07-22T10:10:48;5.75;;;3.03;;
26502;SDS011;14177;51.520;6.764;2023-07-22T10:13:20;5.88;;;3.03;;
26502;SDS011;14177;51.520;6.764;2023-07-22T10:15:48;5.18;;;2.70;;
26502;SDS011;14177;51.520;6.764;2023-07-22T10:18:16;4.13;;;2.67;;
26502;SDS011;14177;51.520;6.764;2023-07-22T10:20:44;9.07;;;2.63;;
26502;SDS011;14177;51.520;6.764;2023-07-22T10:23:13;3.55;;;2.10;;
26502;SDS011;14177;51.520;6.764;2023-07-22T10:25:42;6.85;;;2.58;;
26502;SDS011;14177;51.520;6.764;2023-07-22T10:28:09;6.60;;;2.80;;
26502;SDS011;14177;51.520;6.764;2023-07-22T10:30:38;4.47;;;2.70;;
26502;SDS011;14177;51.520;6.764;2023-07-22T10:33:06;8.50;;;2.65;;
26502;SDS011;14177;51.520;6.764;2023-07-22T10:35:34;4.93;;;2.50;;
26502;SDS011;14177;51.520;6.764;2023-07-22T10:38:13;4.07;;;2.20;;
26502;SDS011;14177;51.520;6.764;2023-07-22T10:40:45;5.85;;;2.58;;
26502;SDS011;14177;51.520;6.764;2023-07-22T10:43:17;6.95;;;2.65;;
26502;SDS011;14177;51.520;6.764;2023-07-22T10:45:51;5.28;;;2.47;;
26502;SDS011;14177;51.520;6.764;2023-07-22T10:48:35;7.45;;;2.70;;
26502;SDS011;14177;51.520;6.764;2023-07-22T10:51:12;6.10;;;2.22;;
26502;SDS011;14177;51.520;6.764;2023-07-22T10:53:42;7.28;;;2.63;;
26502;SDS011;14177;51.520;6.764;2023-07-22T10:56:15;4.25;;;2.72;;
26502;SDS011;14177;51.520;6.764;2023-07-22T11:09:56;4.45;;;2.10;;
26502;SDS011;14177;51.520;6.764;2023-07-22T11:14:38;6.22;;;2.28;;
26502;SDS011;14177;51.520;6.764;2023-07-22T11:17:10;5.82;;;2.20;;
26502;SDS011;14177;51.520;6.764;2023-07-22T11:19:38;3.80;;;1.63;;
26502;SDS011;14177;51.520;6.764;2023-07-22T11:22:05;6.30;;;2.15;;
26502;SDS011;14177;51.520;6.764;2023-07-22T11:24:33;4.75;;;2.13;;
26502;SDS011;14177;51.520;6.764;2023-07-22T11:27:05;3.17;;;2.03;;
26502;SDS011;14177;51.520;6.764;2023-07-22T11:32:04;4.78;;;1.75;;
26502;SDS011;14177;51.520;6.764;2023-07-22T11:34:32;6.60;;;1.65;;
26502;SDS011;14177;51.520;6.764;2023-07-22T11:36:59;9.90;;;2.70;;
26502;SDS011;14177;51.520;6.764;2023-07-22T11:39:26;6.65;;;2.45;;
26502;SDS011;14177;51.520;6.764;2023-07-22T11:41:58;6.85;;;2.10;;
26502;SDS011;14177;51.520;6.764;2023-07-22T11:44:28;5.78;;;2.67;;
26502;SDS011;14177;51.520;6.764;2023-07-22T11:47:06;4.57;;;2.65;;
26502;SDS011;14177;51.520;6.764;2023-07-22T11:49:38;4.40;;;2.78;;
26502;SDS011;14177;51.520;6.764;2023-07-22T11:52:08;7.75;;;2.65;;
26502;SDS011;14177;51.520;6.764;2023-07-22T11:54:41;9.40;;;3.00;;
26502;SDS011;14177;51.520;6.764;2023-07-22T11:57:12;4.72;;;3.00;;
26502;SDS011;14177;51.520;6.764;2023-07-22T11:59:48;9.10;;;2.80;;
26502;SDS011;14177;51.520;6.764;2023-07-22T12:02:21;5.85;;;2.90;;
26502;SDS011;14177;51.520;6.764;2023-07-22T12:07:35;6.60;;;3.00;;
26502;SDS011;14177;51.520;6.764;2023-07-22T12:10:05;5.97;;;2.92;;
26502;SDS011;14177;51.520;6.764;2023-07-22T12:12:36;6.60;;;3.05;;
26502;SDS011;14177;51.520;6.764;2023-07-22T12:15:20;7.57;;;3.20;;
26502;SDS011;14177;51.520;6.764;2023-07-22T12:17:51;6.75;;;3.13;;
26502;SDS011;14177;51.520;6.764;2023-07-22T12:20:25;5.18;;;2.95;;
26502;SDS011;14177;51.520;6.764;2023-07-22T12:22:54;4.57;;;2.70;;
26502;SDS011;14177;51.520;6.764;2023-07-22T12:25:23;5.20;;;2.92;;
26502;SDS011;14177;51.520;6.764;2023-07-22T12:27:50;4.35;;;2.47;;
26502;SDS011;14177;51.520;6.764;2023-07-22T12:30:18;5.05;;;2.80;;
26502;SDS011;14177;51.520;6.764;2023-07-22T12:32:46;7.00;;;2.53;;
26502;SDS011;14177;51.520;6.764;2023-07-22T12:35:14;9.32;;;3.13;;
26502;SDS011;14177;51.520;6.764;2023-07-22T12:37:41;4.75;;;2.42;;
26502;SDS011;14177;51.520;6.764;2023-07-22T12:40:08;6.70;;;2.70;;
26502;SDS011;14177;51.520;6.764;2023-07-22T12:42:38;10.05;;;2.95;;
26502;SDS011;14177;51.520;6.764;2023-07-22T12:45:06;6.32;;;2.70;;
26502;SDS011;14177;51.520;6.764;2023-07-22T12:47:34;4.25;;;2.50;;
26502;SDS011;14177;51.520;6.764;2023-07-22T12:50:03;4.70;;;2.80;;
26502;SDS011;14177;51.520;6.764;2023-07-22T12:52:31;6.90;;;3.03;;
26502;SDS011;14177;51.520;6.764;2023-07-22T12:54:58;11.75;;;3.45;;
26502;SDS011;14177;51.520;6.764;2023-07-22T12:57:25;5.43;;;2.78;;
26502;SDS011;14177;51.520;6.764;2023-07-22T12:59:52;6.22;;;2.70;;
26502;SDS011;14177;51.520;6.764;2023-07-22T13:02:19;7.32;;;2.72;;
26502;SDS011;14177;51.520;6.764;2023-07-22T13:04:46;5.05;;;2.63;;
26502;SDS011;14177;51.520;6.764;2023-07-22T13:07:13;5.18;;;3.08;;
26502;SDS011;14177;51.520;6.764;2023-07-22T13:09:40;5.93;;;2.35;;
26502;SDS011;14177;51.520;6.764;2023-07-22T13:12:09;5.75;;;2.42;;
26502;SDS011;14177;51.520;6.764;2023-07-22T13:14:36;5.70;;;3.03;;
26502;SDS011;14177;51.520;6.764;2023-07-22T13:17:05;5.32;;;2.75;;
26502;SDS011;14177;51.520;6.764;2023-07-22T13:19:33;10.18;;;3.58;;
26502;SDS011;14177;51.520;6.764;2023-07-22T13:22:00;5.70;;;2.90;;
26502;SDS011;14177;51.520;6.764;2023-07-22T13:24:27;5.22;;;2.35;;
26502;SDS011;14177;51.520;6.764;2023-07-22T13:26:55;11.32;;;2.17;;
26502;SDS011;14177;51.520;6.764;2023-07-22T13:29:22;8.00;;;2.85;;
26502;SDS011;14177;51.520;6.764;2023-07-22T13:31:49;6.50;;;2.70;;
26502;SDS011;14177;51.520;6.764;2023-07-22T13:34:16;5.88;;;2.85;;
26502;SDS011;14177;51.520;6.764;2023-07-22T13:36:42;4.47;;;2.40;;
26502;SDS011;14177;51.520;6.764;2023-07-22T13:39:09;6.03;;;2.28;;
26502;SDS011;14177;51.520;6.764;2023-07-22T13:41:36;4.78;;;2.50;;
26502;SDS011;14177;51.520;6.764;2023-07-22T13:44:03;4.75;;;2.35;;
26502;SDS011;14177;51.520;6.764;2023-07-22T13:46:31;4.85;;;2.25;;
26502;SDS011;14177;51.520;6.764;2023-07-22T13:48:58;5.78;;;2.80;;
26502;SDS011;14177;51.520;6.764;2023-07-22T13:51:25;4.88;;;2.35;;
26502;SDS011;14177;51.520;6.764;2023-07-22T13:53:52;5.25;;;2.13;;
26502;SDS011;14177;51.520;6.764;2023-07-22T13:56:21;4.90;;;2.30;;
26502;SDS011;14177;51.520;6.764;2023-07-22T13:58:47;5.57;;;2.70;;
26502;SDS011;14177;51.520;6.764;2023-07-22T14:01:14;4.30;;;2.65;;
26502;SDS011;14177;51.520;6.764;2023-07-22T14:03:42;5.95;;;2.80;;
26502;SDS011;14177;51.520;6.764;2023-07-22T14:06:09;5.50;;;2.60;;
26502;SDS011;14177;51.520;6.764;2023-07-22T14:08:36;5.45;;;2.65;;
26502;SDS011;14177;51.520;6.764;2023-07-22T14:11:03;9.23;;;2.80;;
26502;SDS011;14177;51.520;6.764;2023-07-22T14:13:29;4.78;;;2.85;;
26502;SDS011;14177;51.520;6.764;2023-07-22T14:15:56;4.63;;;2.45;;
26502;SDS011;14177;51.520;6.764;2023-07-22T14:18:39;6.15;;;2.60;;
26502;SDS011;14177;51.520;6.764;2023-07-22T14:21:06;5.95;;;2.75;;
26502;SDS011;14177;51.520;6.764;2023-07-22T14:23:34;6.22;;;2.35;;
26502;SDS011;14177;51.520;6.764;2023-07-22T14:26:01;4.68;;;2.40;;
26502;SDS011;14177;51.520;6.764;2023-07-22T14:28:27;4.78;;;2.65;;
26502;SDS011;14177;51.520;6.764;2023-07-22T14:30:54;6.55;;;2.83;;
26502;SDS011;14177;51.520;6.764;2023-07-22T14:33:21;3.97;;;2.08;;
26502;SDS011;14177;51.520;6.764;2023-07-22T14:35:49;6.85;;;2.67;;
26502;SDS011;14177;51.520;6.764;2023-07-22T14:38:16;8.38;;;3.03;;
26502;SDS011;14177;51.520;6.764;2023-07-22T14:40:43;4.32;;;2.65;;
26502;SDS011;14177;51.520;6.764;2023-07-22T14:43:10;6.20;;;3.08;;
26502;SDS011;14177;51.520;6.764;2023-07-22T14:45:37;3.97;;;2.55;;
26502;SDS011;14177;51.520;6.764;2023-07-22T14:48:03;4.15;;;2.70;;
26502;SDS011;14177;51.520;6.764;2023-07-22T14:50:31;6.22;;;2.13;;
26502;SDS011;14177;51.520;6.764;2023-07-22T14:52:58;5.03;;;2.72;;
26502;SDS011;14177;51.520;6.764;2023-07-22T14:55:25;5.72;;;2.42;;
26502;SDS011;14177;51.520;6.764;2023-07-22T14:57:52;5.82;;;2.75;;
26502;SDS011;14177;51.520;6.764;2023-07-22T15:00:19;7.05;;;3.10;;
26502;SDS011;14177;51.520;6.764;2023-07-22T15:02:47;6.85;;;2.78;;
26502;SDS011;14177;51.520;6.764;2023-07-22T15:05:14;8.02;;;3.33;;